Time;durP1;ratioP1;P1;durP2;ratioP2;P2;SDS_P1;SDS_P2;PMS_P1;PMS_P2;Temp;Humidity;BMP_temperature;BMP_pressure;BME280_temperature;BME280_humidity;BME280_pressure;Samples;Min_cycle;Max_cycle;Signal;HPM_P1;HPM_P2
2022/08/01 06:35:43;;;;;;;0.30;0.30;;;21.80;99.90;22.50;101593.00;;;;6079568;22;4659909;-82
2022/08/01 06:38:41;;;;;;;0.30;0.30;;;21.60;99.90;23.10;101596.00;;;;6202011;22;20188;-80
2022/08/01 06:41:12;;;;;;;0.30;0.30;;;21.90;99.90;24.10;101590.00;;;;6202769;22;20161;-80
2022/08/01 06:44:36;;;;;;;1.00;1.00;;;22.30;99.90;23.60;101594.00;;;;6224688;22;20230;-80
2022/08/01 06:47:37;;;;;;;0.40;0.40;;;22.70;99.90;22.80;101599.00;;;;6208406;22;20172;-78
2022/08/01 06:50:26;;;;;;;0.30;0.30;;;22.30;99.90;23.50;101615.00;;;;6224182;22;20357;-81
2022/08/01 06:53:25;;;;;;;0.30;0.30;;;22.20;99.90;23.70;101615.00;;;;6215277;22;20161;-88
2022/08/01 06:56:22;;;;;;;0.30;0.30;;;22.30;99.90;24.10;101616.00;;;;6226576;22;20164;-87
2022/08/01 06:59:00;;;;;;;0.40;0.40;;;22.50;99.90;24.40;101623.00;;;;6226462;22;20172;-87
2022/08/01 07:10:23;;;;;;;0.30;0.30;;;22.90;99.90;23.70;101630.00;;;;6277806;22;20479;-90
2022/08/01 07:13:21;;;;;;;0.30;0.30;;;23.10;99.90;23.60;101597.00;;;;6263994;22;20163;-89
2022/08/01 07:16:09;;;;;;;5.95;4.63;;;22.70;99.90;24.70;101643.00;;;;6250430;22;20161;-90
2022/08/01 07:18:56;;;;;;;0.20;0.20;;;23.10;99.90;26.00;101675.00;;;;6226613;22;20590;-76
2022/08/01 07:21:34;;;;;;;0.20;0.20;;;24.00;99.90;27.00;101694.00;;;;6226274;22;20188;-71
2022/08/01 07:24:23;;;;;;;0.20;0.20;;;24.70;99.90;26.20;101662.00;;;;6224941;22;20160;-71
2022/08/01 07:27:21;;;;;;;0.20;0.20;;;24.60;99.90;27.30;101712.00;;;;6203859;22;20477;-72
2022/08/01 07:29:56;;;;;;;0.20;0.20;;;25.00;99.90;26.70;101706.00;;;;6129886;23;20167;-73
2022/08/01 07:32:41;;;;;;;0.20;0.20;;;25.20;99.90;27.30;101713.00;;;;6129985;23;20167;-72
2022/08/01 07:35:30;;;;;;;0.30;0.30;;;25.40;99.90;28.60;101744.00;;;;6129552;23;20238;-72
2022/08/01 07:37:56;;;;;;;0.20;0.20;;;26.10;99.90;29.70;101762.00;;;;6130515;23;20230;-72
2022/08/01 07:40:46;;;;;;;0.10;0.10;;;27.30;99.90;29.40;101765.00;;;;6129867;23;20167;-71
2022/08/01 07:43:50;;;;;;;0.10;0.10;;;28.00;99.90;29.70;101773.00;;;;6108177;23;20294;-71
2022/08/01 07:46:42;;;;;;;0.10;0.10;;;28.10;99.90;30.00;101762.00;;;;6201525;22;20164;-71
2022/08/01 07:49:32;;;;;;;0.10;0.10;;;28.00;99.90;28.40;101775.00;;;;6216200;22;20164;-73
2022/08/01 07:52:16;;;;;;;0.20;0.20;;;27.00;99.90;26.20;101711.00;;;;6218483;22;20608;-71
2022/08/01 07:54:56;;;;;;;0.30;0.30;;;25.50;99.90;26.50;101746.00;;;;6225515;22;20171;-71
2022/08/01 07:57:50;;;;;;;0.10;0.10;;;25.00;99.90;26.80;101741.00;;;;6226080;22;20152;-71
2022/08/01 08:01:20;;;;;;;0.10;0.10;;;25.10;99.90;27.50;101765.00;;;;6227497;22;20157;-76
2022/08/01 08:08:53;;;;;;;0.20;0.20;;;25.40;99.90;26.60;101744.00;;;;6275682;22;20226;-85
2022/08/01 08:12:04;;;;;;;0.20;0.20;;;25.00;99.90;26.80;101748.00;;;;6188738;22;20176;-85
2022/08/01 08:15:05;;;;;;;0.10;0.10;;;25.00;99.90;27.90;101775.00;;;;6246280;22;20168;-80
2022/08/01 08:18:42;;;;;;;0.20;0.20;;;25.80;99.90;28.30;101782.00;;;;6208762;22;20566;-78
2022/08/01 08:21:55;;;;;;;0.10;0.10;;;26.20;99.90;29.80;101794.00;;;;6259691;22;20164;-87
2022/08/01 08:24:48;;;;;;;0.10;0.10;;;27.40;99.90;30.00;101805.00;;;;6241122;22;20160;-81
2022/08/01 08:37:54;;;;;;;0.22;0.22;;;28.40;99.90;29.20;101795.00;;;;6062696;23;20717;-82
2022/08/01 08:40:38;;;;;;;0.47;0.47;;;27.80;99.90;30.50;101817.00;;;;6050555;23;20170;-80
2022/08/01 08:43:56;;;;;;;0.10;0.10;;;28.60;99.90;29.40;101819.00;;;;6235365;22;20188;-81
2022/08/01 08:46:55;;;;;;;0.20;0.20;;;28.20;99.90;29.60;101818.00;;;;6239052;22;20185;-82
2022/08/01 08:49:30;;;;;;;0.20;0.20;;;28.10;99.90;29.80;101826.00;;;;6247994;22;20185;-80
2022/08/01 08:52:23;;;;;;;0.10;0.10;;;28.20;99.90;29.70;101791.00;;;;6224778;22;20188;-84
2022/08/01 08:55:06;;;;;;;0.10;0.10;;;28.30;99.90;30.30;101833.00;;;;6226947;22;20168;-79
2022/08/01 08:58:16;;;;;;;0.10;0.10;;;28.80;99.90;31.30;101836.00;;;;6230005;22;20164;-79
2022/08/01 09:01:26;;;;;;;0.10;0.10;;;29.30;99.90;31.70;101842.00;;;;6211310;22;20164;-79
2022/08/01 09:04:32;;;;;;;0.10;0.10;;;30.10;99.90;31.10;101848.00;;;;6199297;22;20671;-79
2022/08/01 09:07:10;;;;;;;0.10;0.10;;;30.40;99.90;29.90;101845.00;;;;6222835;22;20165;-73
2022/08/01 09:09:37;;;;;;;0.25;0.25;;;29.20;99.90;27.40;101806.00;;;;6224848;22;20153;-77
2022/08/01 09:12:32;;;;;;;0.38;0.38;;;27.40;99.90;29.00;101831.00;;;;6224731;22;20240;-77
2022/08/01 09:15:44;;;;;;;0.10;0.10;;;27.30;99.90;29.00;101810.00;;;;6210506;22;20165;-77
2022/08/01 09:18:42;;;;;;;0.10;0.10;;;27.20;99.90;30.10;101836.00;;;;6204540;22;20184;-78
2022/08/01 09:21:35;;;;;;;7.65;3.10;;;27.80;99.90;30.60;101840.00;;;;6224134;22;20569;-78
2022/08/01 09:24:23;;;;;;;0.10;0.10;;;28.40;99.90;30.80;101845.00;;;;6224252;22;20489;-78
2022/08/01 10:18:27;;;;;;;0.10;0.10;;;28.50;99.90;28.20;101884.00;;;;6306167;22;20199;-78
2022/08/01 10:45:33;;;;;;;;;;;;;;;;;;;;;
2022/08/01 10:53:43;;;;;;;0.10;0.10;;;27.30;99.90;28.50;101864.00;;;;6144783;23;20185;-81
2022/08/01 11:20:06;;;;;;;0.28;0.28;;;27.40;99.90;28.80;101886.00;;;;6152658;23;20166;-81
2022/08/01 11:23:14;;;;;;;0.10;0.10;;;27.30;99.90;29.30;101857.00;;;;6160032;23;20236;-82
2022/08/01 11:30:09;;;;;;;0.28;0.15;;;27.80;99.90;28.00;101887.00;;;;6160558;23;20226;-69
2022/08/01 11:33:16;;;;;;;0.10;0.10;;;28.20;99.90;29.90;101887.00;;;;6187191;23;20190;-80
2022/08/01 11:36:20;;;;;;;0.20;0.20;;;28.10;99.90;31.20;101883.00;;;;6194180;23;20577;-80
2022/08/01 15:50:39;;;;;;;0.80;0.68;;;25.60;99.90;27.10;101815.00;;;;6326967;22;20690;-75
2022/08/01 15:53:56;;;;;;;0.32;0.32;;;25.70;99.90;27.70;101821.00;;;;6312572;22;20274;-73
2022/08/01 15:56:48;;;;;;;3.60;1.35;;;25.80;99.90;26.80;101814.00;;;;6312798;22;20580;-74
2022/08/01 15:59:44;;;;;;;0.10;0.10;;;25.60;99.90;26.90;101806.00;;;;6337204;22;20180;-74
2022/08/01 16:02:40;;;;;;;0.30;0.20;;;25.40;99.20;27.40;101805.00;;;;6313501;22;20187;-73
2022/08/01 16:05:33;;;;;;;0.30;0.30;;;25.60;99.90;27.90;101814.00;;;;6289062;22;20183;-74
2022/08/01 16:08:34;;;;;;;0.10;0.10;;;25.80;99.90;28.20;101810.00;;;;6312218;22;20234;-73
2022/08/01 16:11:36;;;;;;;0.10;0.10;;;26.00;99.90;28.20;101797.00;;;;6311728;22;20213;-73
2022/08/01 16:14:12;;;;;;;0.10;0.10;;;26.30;99.90;27.20;101808.00;;;;6339379;22;20246;-73
2022/08/01 16:17:27;;;;;;;0.10;0.10;;;25.90;99.90;26.50;101827.00;;;;6336324;22;20604;-73
2022/08/01 16:20:27;;;;;;;0.20;0.20;;;25.60;99.90;27.40;101825.00;;;;6337522;22;20230;-73
2022/08/01 16:24:01;;;;;;;0.43;0.43;;;25.50;99.90;27.10;101829.00;;;;6338069;22;20191;-73
2022/08/01 16:27:10;;;;;;;0.20;0.20;;;25.50;99.90;26.90;101826.00;;;;6336940;22;20159;-73
2022/08/01 16:30:09;;;;;;;0.10;0.10;;;25.40;99.90;27.90;101813.00;;;;6312777;22;20233;-74
2022/08/01 16:33:27;;;;;;;0.10;0.10;;;25.70;99.90;27.50;101819.00;;;;6338988;22;20190;-73
2022/08/01 16:36:34;;;;;;;0.10;0.10;;;25.70;99.90;27.80;101799.00;;;;6335562;22;20159;-73
2022/08/01 16:39:32;;;;;;;0.30;0.30;;;25.90;99.90;28.00;101802.00;;;;6311621;22;20156;-73
2022/08/01 16:43:05;;;;;;;0.10;0.10;;;25.90;99.90;28.10;101811.00;;;;6337998;22;20187;-74
2022/08/01 16:47:08;;;;;;;0.10;0.10;;;26.10;99.90;27.40;101815.00;;;;6368193;22;20543;-76
2022/08/01 16:50:58;;;;;;;0.20;0.20;;;26.00;99.90;27.10;101828.00;;;;6208160;23;20170;-73
2022/08/01 16:54:27;;;;;;;0.22;0.22;;;25.60;99.90;27.20;101809.00;;;;6212764;23;20646;-72
2022/08/01 17:01:43;;;;;;;0.10;0.10;;;25.40;99.90;27.20;101793.00;;;;6243585;23;20226;-73
2022/08/01 17:05:01;;;;;;;0.10;0.10;;;25.40;99.90;27.50;101798.00;;;;6217725;23;20173;-72
2022/08/01 17:07:51;;;;;;;0.10;0.10;;;25.50;99.90;27.70;101806.00;;;;6123230;23;20313;-72
2022/08/01 17:10:49;;;;;;;0.10;0.10;;;25.70;99.90;26.60;101820.00;;;;6212246;23;20207;-72
2022/08/01 17:14:21;;;;;;;0.10;0.10;;;25.20;99.90;26.80;101817.00;;;;6242578;23;20686;-72
2022/08/01 17:17:38;;;;;;;0.10;0.10;;;25.20;99.90;27.00;101812.00;;;;6204620;23;20165;-75
2022/08/01 17:21:12;;;;;;;0.30;0.30;;;25.20;99.90;26.20;101820.00;;;;6217403;23;20153;-71
2022/08/01 17:24:51;;;;;;;0.10;0.10;;;25.00;99.90;26.60;101795.00;;;;6211563;23;20204;-73
2022/08/01 17:28:21;;;;;;;0.10;0.10;;;25.00;99.90;27.60;101816.00;;;;6204721;23;20165;-74
2022/08/01 17:31:17;;;;;;;0.10;0.10;;;25.40;99.90;27.30;101817.00;;;;6193589;23;20695;-74
2022/08/01 17:34:36;;;;;;;0.10;0.10;;;25.40;99.90;27.40;101813.00;;;;6193025;23;20173;-74
2022/08/01 17:37:51;;;;;;;0.10;0.10;;;25.40;99.90;26.80;101815.00;;;;6285800;22;20553;-72
2022/08/01 17:40:58;;;;;;;0.47;0.47;;;25.40;99.90;26.30;101819.00;;;;6345765;22;20154;-72
2022/08/01 17:44:56;;;;;;;0.15;0.15;;;25.00;99.90;26.10;101824.00;;;;6341249;22;20193;-73
2022/08/01 17:47:57;;;;;;;0.10;0.10;;;24.90;99.90;26.10;101821.00;;;;6360294;22;20165;-74
2022/08/01 17:50:54;;;;;;;0.22;0.22;;;24.70;99.90;26.50;101810.00;;;;6335201;22;20608;-69
2022/08/01 17:54:21;;;;;;;0.10;0.10;;;24.70;99.90;26.00;101820.00;;;;6342164;22;20200;-73
2022/08/01 17:58:13;;;;;;;0.20;0.20;;;24.60;99.90;26.20;101822.00;;;;6363077;22;20165;-73
2022/08/01 18:01:00;;;;;;;0.10;0.10;;;24.60;99.90;26.30;101811.00;;;;6213644;23;20168;-72
2022/08/01 18:04:31;;;;;;;30.98;2.50;;;24.60;99.90;26.80;101808.00;;;;6148649;23;20170;-73
2022/08/01 18:07:39;;;;;;;0.17;0.17;;;24.80;99.90;26.00;101816.00;;;;6187543;23;20166;-72
2022/08/01 18:15:06;;;;;;;0.20;0.20;;;24.80;99.90;27.00;101811.00;;;;6211130;23;20229;-73
2022/08/01 18:56:58;;;;;;;0.10;0.10;;;24.20;99.90;26.50;101832.00;;;;6304719;22;20522;-74
2022/08/01 19:00:52;;;;;;;0.10;0.10;;;24.30;99.90;26.60;101834.00;;;;6339396;22;20174;-73
2022/08/01 19:12:44;;;;;;;0.10;0.10;;;24.30;99.90;26.20;101855.00;;;;6340408;22;20164;-74
2022/08/01 19:16:09;;;;;;;0.10;0.10;;;24.10;99.90;26.20;101846.00;;;;6195005;22;20164;-73
2022/08/01 19:19:29;;;;;;;0.10;0.10;;;24.10;99.90;25.40;101835.00;;;;6334832;22;20167;-75
2022/08/01 19:26:40;;;;;;;0.60;0.60;;;23.30;99.90;24.60;101817.00;;;;6239090;22;20167;-74
2022/08/01 19:30:03;;;;;;;0.10;0.10;;;23.20;99.90;24.90;101825.00;;;;6336628;22;20180;-74
2022/08/01 19:34:00;;;;;;;0.10;0.10;;;23.10;99.90;24.20;101834.00;;;;6310853;22;20189;-75
2022/08/01 19:37:58;;;;;;;0.10;0.10;;;22.90;99.90;24.40;101835.00;;;;6182207;23;20177;-75
2022/08/01 19:41:04;;;;;;;0.10;0.10;;;22.90;99.90;24.40;101834.00;;;;6309280;22;20163;-74
2022/08/01 19:47:30;;;;;;;0.10;0.10;;;22.80;99.90;24.40;101795.00;;;;6308483;22;20166;-74
2022/08/01 19:51:11;;;;;;;0.10;0.10;;;22.80;99.90;24.20;101834.00;;;;6311911;22;20174;-75
2022/08/01 19:54:35;;;;;;;0.30;0.30;;;22.80;99.90;24.70;101843.00;;;;6322785;22;20235;-74
2022/08/01 19:57:56;;;;;;;0.13;0.13;;;22.70;99.90;24.10;101825.00;;;;6312503;22;20178;-74
2022/08/01 20:12:12;;;;;;;0.10;0.10;;;22.40;99.90;24.20;101824.00;;;;6272705;22;20223;-74
2022/08/01 20:15:27;;;;;;;0.10;0.10;;;22.40;99.90;24.00;101815.00;;;;6247744;22;20165;-74
2022/08/01 20:18:53;;;;;;;0.10;0.10;;;22.40;99.90;23.90;101820.00;;;;6249277;22;20161;-75
2022/08/01 20:26:26;;;;;;;0.10;0.10;;;22.10;99.90;23.80;101815.00;;;;6258944;22;20238;-74
2022/08/01 20:33:46;;;;;;;0.20;0.20;;;22.30;99.90;24.50;101824.00;;;;6271609;22;20675;-74
2022/08/01 20:37:23;;;;;;;0.20;0.20;;;22.50;99.90;23.70;101814.00;;;;6268137;22;20164;-75
2022/08/01 20:41:07;;;;;;;0.20;0.20;;;22.10;99.90;23.80;101781.00;;;;6209206;22;20161;-74
2022/08/01 20:52:24;;;;;;;0.20;0.20;;;21.90;99.90;24.10;101774.00;;;;6324318;22;20165;-74
2022/08/01 20:56:03;;;;;;;0.30;0.30;;;22.10;99.90;23.90;101806.00;;;;6306268;22;20247;-74
2022/08/01 20:59:32;;;;;;;0.30;0.30;;;22.10;99.90;24.20;101814.00;;;;6285517;22;20171;-74
2022/08/01 21:02:52;;;;;;;0.20;0.20;;;22.10;99.90;23.50;101775.00;;;;6322664;22;20312;-75
